Baldwin Place, New York
Current Conditions -  °F | °C
As of 6:53 PM on Friday 19 Dec 2014 (Local Time) from KDXR Reporting Station
Clear Clear  
Wind Chill: 24°   Ceiling: Unl
Heat Index: 30°   Visibility: 10mi
Dew Point: 18°   Wind: 6mph
Humidity: 61%   Direction: 340°NNW
Pressure: 30.12"   Gusts: NA
Location:  41.35°N, 73.76°W
Report Text: KDXR 192353Z 34005KT 10SM CLR M01/M08 A3012 RMK AO2 SLP204 T10111078 10028 21011 53027
Loading
Personal Weather Stations






























Interactive Weather Map New forecast layout! Learn more

10-Day Weather Forecast

Advertisements
Track Severe Weather on mobile